createdAt,value
2019-05-10T00:00:10.125Z,5.60
2019-05-10T00:05:35.263Z,6.58
2019-05-10T00:10:47.347Z,6.00
2019-05-10T00:15:54.427Z,7.47
2019-05-10T00:21:02.451Z,9.00
2019-05-10T00:31:15.430Z,5.00
2019-05-10T00:41:28.428Z,5.00
2019-05-10T00:51:41.438Z,5.17
2019-05-10T00:56:48.497Z,4.67
2019-05-10T01:07:01.407Z,4.40
2019-05-10T01:22:20.451Z,5.25
2019-05-10T01:27:27.566Z,7.90
2019-05-10T01:32:34.767Z,5.97
2019-05-10T01:37:41.568Z,6.15
2019-05-10T01:42:48.474Z,6.58
2019-05-10T01:47:55.502Z,8.20
2019-05-10T01:53:02.487Z,5.75
2019-05-10T01:58:09.484Z,8.83
2019-05-10T02:03:16.472Z,10.70
2019-05-10T02:08:23.445Z,6.90
2019-05-10T02:13:30.444Z,12.20
2019-05-10T02:18:37.448Z,7.12
2019-05-10T02:23:44.421Z,8.43
2019-05-10T02:28:52.492Z,5.92
2019-05-10T02:33:59.438Z,8.60
2019-05-10T02:39:09.119Z,5.15
2019-05-10T02:44:16.409Z,5.08
2019-05-10T02:49:23.453Z,7.60
2019-05-10T02:54:30.433Z,5.65
2019-05-10T02:59:37.427Z,5.58
2019-05-10T03:04:47.462Z,8.75
2019-05-10T03:09:54.452Z,5.37
2019-05-10T03:15:01.565Z,6.17
2019-05-10T03:20:09.566Z,6.78
2019-05-10T03:25:17.417Z,6.17
2019-05-10T03:30:24.439Z,6.25
2019-05-10T03:35:31.445Z,6.65
2019-05-10T03:40:38.721Z,3.65
2019-05-10T03:45:45.577Z,5.55
2019-05-10T03:50:52.500Z,5.28
2019-05-10T03:55:59.476Z,5.37
2019-05-10T04:01:06.518Z,4.95
2019-05-10T04:06:13.576Z,5.35
2019-05-10T04:11:22.442Z,3.87
2019-05-10T04:16:29.546Z,4.53
2019-05-10T04:21:36.568Z,4.83
2019-05-10T04:26:43.436Z,4.70
2019-05-10T04:31:50.430Z,4.15
2019-05-10T04:36:57.546Z,3.35
2019-05-10T04:42:04.440Z,5.58
2019-05-10T04:47:12.710Z,5.30
2019-05-10T04:52:19.561Z,5.10
2019-05-10T04:57:26.437Z,3.85
2019-05-10T05:02:33.454Z,7.05
2019-05-10T05:07:40.434Z,6.97
2019-05-10T05:18:00.744Z,3.70
2019-05-10T05:23:07.559Z,9.18
2019-05-10T05:28:18.301Z,8.83
2019-05-10T05:33:23.384Z,7.87
2019-05-10T05:38:30.558Z,5.22
2019-05-10T05:43:45.326Z,7.20
2019-05-10T05:48:46.432Z,3.95
2019-05-10T05:53:53.461Z,4.70
2019-05-10T05:59:00.435Z,6.78
2019-05-10T06:04:12.529Z,6.15
2019-05-10T06:09:16.416Z,4.72
2019-05-10T06:14:23.467Z,5.30
2019-05-10T06:19:30.855Z,6.65
2019-05-10T06:24:37.705Z,13.05
2019-05-10T06:29:44.557Z,8.98
2019-05-10T06:34:51.435Z,4.37
2019-05-10T06:39:58.571Z,5.65
2019-05-10T06:45:14.347Z,5.08
2019-05-10T06:50:17.577Z,4.05
2019-05-10T06:55:25.248Z,3.30
2019-05-10T07:00:32.418Z,3.90
2019-05-10T07:05:39.434Z,3.02
2019-05-10T07:10:46.574Z,7.65
2019-05-10T07:15:53.572Z,4.83
2019-05-10T07:21:00.935Z,4.87
2019-05-10T07:26:09.954Z,12.65
2019-05-10T07:31:17.448Z,5.53
2019-05-10T07:36:27.249Z,7.25
2019-05-10T07:41:33.417Z,6.42
2019-05-10T07:46:47.094Z,6.77
2019-05-10T07:51:49.581Z,7.25
2019-05-10T07:56:56.600Z,5.53
2019-05-10T08:02:06.072Z,5.50
2019-05-10T08:07:12.455Z,5.12
2019-05-10T08:12:19.667Z,7.97
2019-05-10T08:17:28.793Z,5.47
2019-05-10T08:27:50.236Z,8.60
2019-05-10T08:32:52.709Z,10.70
2019-05-10T08:43:13.990Z,12.23
2019-05-10T08:53:26.455Z,13.70
2019-05-10T08:58:37.181Z,17.77
2019-05-10T09:08:55.331Z,15.70
2019-05-10T09:13:58.499Z,11.28
2019-05-10T09:19:05.559Z,10.55
2019-05-10T09:24:12.870Z,12.07
2019-05-10T09:29:21.792Z,17.70
2019-05-10T09:34:28.561Z,18.50
2019-05-10T09:39:35.534Z,18.48
2019-05-10T09:44:45.679Z,20.15
2019-05-10T09:49:56.691Z,15.28
2019-05-10T09:55:04.041Z,14.35
2019-05-10T10:00:09.845Z,17.20
2019-05-10T10:05:17.932Z,16.73
2019-05-10T10:10:31.705Z,19.95
2019-05-10T10:15:34.493Z,22.62
2019-05-10T10:26:01.563Z,23.83
2019-05-10T10:31:08.741Z,21.10
2019-05-10T10:36:15.685Z,18.10
2019-05-10T10:46:30.495Z,18.40
2019-05-10T10:51:37.924Z,14.05
2019-05-10T11:02:23.246Z,16.65
2019-05-10T11:07:10.067Z,16.07
2019-05-10T11:12:09.422Z,13.72
2019-05-10T11:17:16.486Z,12.00
2019-05-10T11:22:23.524Z,10.98
2019-05-10T11:27:30.997Z,7.42
2019-05-10T11:32:38.420Z,6.58
2019-05-10T11:37:45.846Z,8.13
2019-05-10T11:42:52.858Z,7.00
2019-05-10T11:48:02.037Z,8.78
2019-05-10T11:53:13.328Z,11.28
2019-05-10T11:58:17.438Z,11.88
2019-05-10T12:03:24.549Z,8.53
2019-05-10T12:08:32.423Z,8.55
2019-05-10T12:13:39.515Z,7.80
2019-05-10T12:19:02.439Z,11.43
2019-05-10T12:26:33.846Z,10.48
2019-05-10T12:29:12.431Z,16.73
2019-05-10T12:34:14.581Z,11.97
2019-05-10T12:39:21.574Z,9.33
2019-05-10T12:44:33.453Z,10.40
2019-05-10T12:49:40.927Z,7.00
2019-05-10T12:54:48.459Z,4.97
2019-05-10T12:59:55.549Z,4.53
2019-05-10T13:05:02.455Z,5.60
2019-05-10T13:10:10.279Z,13.55
2019-05-10T13:15:17.456Z,3.35
2019-05-10T13:20:30.726Z,3.33
2019-05-10T13:25:34.430Z,4.55
2019-05-10T13:30:41.546Z,4.37
2019-05-10T13:35:50.775Z,8.24
2019-05-10T13:40:58.412Z,2.27
2019-05-10T13:46:05.412Z,4.28
2019-05-10T13:51:12.447Z,8.10
2019-05-10T13:56:19.474Z,13.35
2019-05-10T14:01:26.578Z,6.25
2019-05-10T14:06:34.227Z,4.17
2019-05-10T14:11:46.644Z,7.25
2019-05-10T14:16:51.456Z,5.10
2019-05-10T14:21:58.861Z,11.73
2019-05-10T14:27:05.562Z,5.53
2019-05-10T14:32:12.435Z,6.75
2019-05-10T14:37:21.473Z,8.40
2019-05-10T14:42:31.279Z,6.83
2019-05-10T14:47:46.836Z,4.80
2019-05-10T14:52:46.400Z,8.27
2019-05-10T14:57:53.449Z,8.83
2019-05-10T15:03:02.460Z,7.33
2019-05-10T15:08:09.407Z,7.42
2019-05-10T15:13:19.515Z,5.62
2019-05-10T15:18:25.450Z,7.30
2019-05-10T15:23:32.449Z,8.70
2019-05-10T15:28:42.133Z,7.35
2019-05-10T15:33:48.449Z,5.78
2019-05-10T15:38:55.447Z,6.62
2019-05-10T15:44:02.475Z,6.80
2019-05-10T15:49:13.586Z,5.10
2019-05-10T15:54:19.441Z,5.45
2019-05-10T15:59:26.435Z,6.67
2019-05-10T16:04:33.614Z,4.03
2019-05-10T16:09:40.467Z,5.62
2019-05-10T16:14:47.453Z,4.63
2019-05-10T16:19:59.457Z,4.17
2019-05-10T16:25:03.470Z,7.62
2019-05-10T16:30:11.897Z,5.30
2019-05-10T16:35:22.019Z,5.65
2019-05-10T16:40:28.463Z,2.15
2019-05-10T16:45:35.714Z,4.45
2019-05-10T16:50:42.560Z,3.15
2019-05-10T16:55:49.459Z,1.87
2019-05-10T17:00:58.490Z,2.75
2019-05-10T17:06:05.794Z,1.80
2019-05-10T17:11:12.747Z,2.98
2019-05-10T17:16:19.585Z,3.27
2019-05-10T17:21:28.450Z,3.15
2019-05-10T17:26:35.495Z,2.67
2019-05-10T17:31:45.590Z,5.37
2019-05-10T17:36:57.073Z,8.35
2019-05-10T17:42:03.063Z,4.33
2019-05-10T17:47:09.566Z,6.72
2019-05-10T17:52:16.519Z,3.87
2019-05-10T17:57:25.894Z,3.35
2019-05-10T18:02:32.660Z,2.72
2019-05-10T18:07:39.575Z,6.30
2019-05-10T18:12:46.444Z,5.70
2019-05-10T18:17:57.454Z,2.58
2019-05-10T18:23:02.454Z,3.70
2019-05-10T18:28:09.543Z,5.55
2019-05-10T18:33:16.464Z,5.20
2019-05-10T18:38:23.917Z,6.30
2019-05-10T18:43:35.330Z,3.98
2019-05-10T18:48:40.451Z,4.70
2019-05-10T18:53:47.442Z,3.98
2019-05-10T18:58:54.572Z,4.85
2019-05-10T19:04:01.451Z,3.17
2019-05-10T19:09:09.680Z,3.10
2019-05-10T19:14:16.578Z,4.03
2019-05-10T19:19:24.872Z,3.60
2019-05-10T19:24:32.245Z,4.70
2019-05-10T19:29:45.557Z,5.40
2019-05-10T19:34:56.931Z,2.83
2019-05-10T19:39:57.444Z,4.28
2019-05-10T19:45:04.594Z,3.72
2019-05-10T19:50:12.232Z,3.33
2019-05-10T19:55:21.690Z,3.83
2019-05-10T20:00:29.271Z,7.05
2019-05-10T20:05:36.471Z,11.23
2019-05-10T20:10:43.480Z,7.35
2019-05-10T20:15:50.523Z,6.85
2019-05-10T20:20:57.580Z,7.37
2019-05-10T20:26:05.627Z,5.45
2019-05-10T20:31:12.513Z,7.08
2019-05-10T20:36:19.498Z,6.33
2019-05-10T20:41:30.264Z,4.62
2019-05-10T20:46:37.496Z,4.97
2019-05-10T20:51:44.490Z,6.75
2019-05-10T20:56:51.522Z,6.00
2019-05-10T21:01:58.474Z,8.60
2019-05-10T21:07:05.483Z,6.08
2019-05-10T21:12:13.715Z,9.43
2019-05-10T21:17:21.677Z,9.28
2019-05-10T21:22:28.455Z,6.33
2019-05-10T21:27:35.586Z,7.22
2019-05-10T21:32:42.470Z,5.78
2019-05-10T21:37:49.574Z,6.50
2019-05-10T21:42:56.499Z,6.20
2019-05-10T21:48:03.772Z,7.28
2019-05-10T21:53:12.460Z,10.80
2019-05-10T21:58:19.531Z,5.65
2019-05-10T22:03:27.104Z,8.43
2019-05-10T22:08:48.342Z,10.82
2019-05-10T22:16:18.573Z,10.15
2019-05-10T22:21:25.460Z,7.90
2019-05-10T22:26:32.437Z,8.43
2019-05-10T22:31:40.623Z,7.90
2019-05-10T22:36:47.563Z,10.25
2019-05-10T22:41:54.487Z,9.23
2019-05-10T22:47:01.447Z,6.95
2019-05-10T22:52:08.453Z,6.10
2019-05-10T22:57:16.557Z,6.80
2019-05-10T23:02:23.609Z,7.95
2019-05-10T23:07:30.497Z,9.23
2019-05-10T23:12:39.403Z,9.05
2019-05-10T23:17:46.462Z,7.70
2019-05-10T23:22:53.464Z,9.20
2019-05-10T23:28:02.906Z,10.80
2019-05-10T23:33:09.934Z,8.85
2019-05-10T23:38:16.777Z,9.55
2019-05-10T23:43:23.910Z,7.30
2019-05-10T23:48:34.269Z,8.33
2019-05-10T23:53:44.776Z,9.45
2019-05-10T23:58:51.599Z,10.72
